createdAt,value
2018-07-25T00:00:21.800Z,5.17
2018-07-25T00:02:51.801Z,5.70
2018-07-25T00:05:22.039Z,5.00
2018-07-25T00:07:52.017Z,4.43
2018-07-25T00:10:22.137Z,3.80
2018-07-25T00:12:54.122Z,4.00
2018-07-25T00:15:24.072Z,3.80
2018-07-25T00:39:33.972Z,3.90
2018-07-25T00:42:15.387Z,3.90
2018-07-25T00:44:45.532Z,4.07
2018-07-25T00:47:16.690Z,4.13
2018-07-25T00:50:05.370Z,4.00
2018-07-25T00:52:35.787Z,4.37
2018-07-25T00:55:05.899Z,3.97
2018-07-25T00:57:35.979Z,4.60
2018-07-25T01:00:06.537Z,3.83
2018-07-25T01:03:01.217Z,4.17
2018-07-25T01:05:33.243Z,3.93
2018-07-25T01:08:03.205Z,3.90
2018-07-25T01:10:33.260Z,4.00
2018-07-25T01:13:27.329Z,4.17
2018-07-25T01:15:58.653Z,3.87
2018-07-25T01:18:32.366Z,4.40
2018-07-25T01:21:15.534Z,3.87
2018-07-25T01:24:00.403Z,3.73
2018-07-25T01:26:32.354Z,4.37
2018-07-25T01:29:02.343Z,3.50
2018-07-25T01:31:51.521Z,3.83
2018-07-25T01:34:29.726Z,3.67
2018-07-25T01:36:59.906Z,3.80
2018-07-25T01:39:29.918Z,4.03
2018-07-25T01:41:59.973Z,4.20
2018-07-25T01:44:30.794Z,4.23
2018-07-25T01:47:01.613Z,4.47
2018-07-25T01:49:32.191Z,4.30
2018-07-25T01:52:03.884Z,4.00
2018-07-25T01:54:34.306Z,4.33
2018-07-25T01:57:04.440Z,4.53
2018-07-25T01:59:34.626Z,4.03
2018-07-25T02:02:04.746Z,4.20
2018-07-25T02:04:36.090Z,4.57
2018-07-25T02:07:20.291Z,4.57
2018-07-25T02:09:52.150Z,4.40
2018-07-25T02:12:22.328Z,4.63
2018-07-25T02:14:52.237Z,3.93
2018-07-25T02:17:22.292Z,3.90
2018-07-25T02:19:52.395Z,4.10
2018-07-25T02:23:02.136Z,4.07
2018-07-25T02:25:35.890Z,4.40
2018-07-25T02:28:17.438Z,4.00
2018-07-25T02:30:53.833Z,3.77
2018-07-25T02:33:28.879Z,3.30
2018-07-25T02:35:59.128Z,4.10
2018-07-25T02:38:30.353Z,3.60
2018-07-25T02:41:00.306Z,4.00
2018-07-25T02:43:30.484Z,3.93
2018-07-25T03:06:46.711Z,3.70
2018-07-25T03:09:16.970Z,3.37
2018-07-25T03:11:47.579Z,3.33
2018-07-25T03:14:26.467Z,3.60
2018-07-25T03:17:14.016Z,4.00
2018-07-25T03:20:07.352Z,4.27
2018-07-25T03:22:38.952Z,3.93
2018-07-25T03:25:09.714Z,4.00
2018-07-25T03:27:39.927Z,3.83
2018-07-25T03:30:10.547Z,3.57
2018-07-25T03:32:40.756Z,3.73
2018-07-25T03:35:11.464Z,3.93
2018-07-25T03:37:46.132Z,3.70
2018-07-25T03:40:24.237Z,3.70
2018-07-25T03:43:17.741Z,3.93
2018-07-25T03:45:48.200Z,3.87
2018-07-25T03:48:19.071Z,3.73
2018-07-25T03:50:49.312Z,3.50
2018-07-25T03:53:19.495Z,3.53
2018-07-25T03:55:49.653Z,3.70
2018-07-25T03:58:19.775Z,4.10
2018-07-25T04:00:50.005Z,3.90
2018-07-25T04:03:20.737Z,3.50
2018-07-25T04:05:51.028Z,3.30
2018-07-25T04:08:21.329Z,3.80
2018-07-25T04:10:51.464Z,3.60
2018-07-25T04:13:21.598Z,3.50
2018-07-25T04:15:51.912Z,3.77
2018-07-25T04:18:22.481Z,3.93
2018-07-25T04:20:52.711Z,3.63
2018-07-25T04:23:22.921Z,3.40
2018-07-25T04:25:53.220Z,3.57
2018-07-25T04:28:23.523Z,3.40
2018-07-25T04:30:53.800Z,3.40
2018-07-25T04:33:24.927Z,3.53
2018-07-25T04:35:55.010Z,3.50
2018-07-25T04:38:25.158Z,3.40
2018-07-25T04:40:55.346Z,3.87
2018-07-25T04:43:25.599Z,4.30
2018-07-25T04:45:55.842Z,4.40
2018-07-25T04:48:26.153Z,4.07
2018-07-25T04:50:56.409Z,4.60
2018-07-25T04:53:26.682Z,4.00
2018-07-25T04:55:56.851Z,3.50
2018-07-25T04:58:29.990Z,4.07
2018-07-25T05:01:09.683Z,3.77
2018-07-25T05:03:39.931Z,4.73
2018-07-25T05:06:10.467Z,4.40
2018-07-25T05:08:41.945Z,3.73
2018-07-25T05:11:12.292Z,3.97
2018-07-25T05:13:42.421Z,3.50
2018-07-25T05:16:12.531Z,3.27
2018-07-25T05:18:42.798Z,3.20
2018-07-25T05:21:13.061Z,3.30
2018-07-25T05:23:43.138Z,3.20
2018-07-25T05:26:13.041Z,2.90
2018-07-25T05:28:43.017Z,3.80
2018-07-25T05:31:19.419Z,4.10
2018-07-25T05:33:49.306Z,3.70
2018-07-25T05:36:19.377Z,3.50
2018-07-25T05:38:49.385Z,3.27
2018-07-25T05:41:19.436Z,3.57
2018-07-25T05:43:49.367Z,3.20
2018-07-25T05:46:19.905Z,3.40
2018-07-25T05:48:49.970Z,4.20
2018-07-25T05:51:20.582Z,4.77
2018-07-25T05:53:50.610Z,6.07
2018-07-25T05:56:20.513Z,5.27
2018-07-25T05:58:50.801Z,4.97
2018-07-25T06:01:21.667Z,5.67
2018-07-25T06:03:52.068Z,4.73
2018-07-25T06:06:22.560Z,3.77
2018-07-25T06:08:52.776Z,4.03
2018-07-25T06:11:22.741Z,4.83
2018-07-25T06:13:52.642Z,4.67
2018-07-25T06:16:23.025Z,4.50
2018-07-25T06:18:53.194Z,4.07
2018-07-25T06:21:23.091Z,4.10
2018-07-25T06:23:53.338Z,3.57
2018-07-25T06:26:24.129Z,5.17
2018-07-25T06:28:54.007Z,4.10
2018-07-25T06:31:23.985Z,4.47
2018-07-25T06:33:53.818Z,4.43
2018-07-25T06:36:24.277Z,4.70
2018-07-25T06:38:54.135Z,3.87
2018-07-25T06:41:24.366Z,4.20
2018-07-25T06:43:54.212Z,3.97
2018-07-25T06:46:25.564Z,4.20
2018-07-25T06:48:55.631Z,3.40
2018-07-25T06:51:26.421Z,3.80
2018-07-25T06:53:56.394Z,3.93
2018-07-25T06:56:26.195Z,4.13
2018-07-25T06:58:56.064Z,4.10
2018-07-25T07:01:26.574Z,3.90
2018-07-25T07:03:56.397Z,3.63
2018-07-25T07:06:26.276Z,3.13
2018-07-25T07:08:56.391Z,3.30
2018-07-25T07:11:26.606Z,3.60
2018-07-25T07:13:56.530Z,3.50
2018-07-25T07:16:26.418Z,3.37
2018-07-25T07:18:56.321Z,3.77
2018-07-25T07:21:26.226Z,3.53
2018-07-25T07:23:56.395Z,3.57
2018-07-25T07:26:27.239Z,3.63
2018-07-25T07:28:57.128Z,3.47
2018-07-25T07:31:27.074Z,3.13
2018-07-25T07:33:57.008Z,3.47
2018-07-25T07:36:27.012Z,3.20
2018-07-25T07:38:57.150Z,3.73
2018-07-25T07:41:27.638Z,3.67
2018-07-25T07:43:57.795Z,3.47
2018-07-25T07:46:29.253Z,3.57
2018-07-25T07:48:59.315Z,3.33
2018-07-25T07:51:29.244Z,3.63
2018-07-25T07:53:59.177Z,3.60
2018-07-25T07:56:29.266Z,3.40
2018-07-25T07:58:59.266Z,3.80
2018-07-25T08:01:29.209Z,3.30
2018-07-25T08:03:59.044Z,3.83
2018-07-25T08:06:29.138Z,4.00
2018-07-25T08:08:59.057Z,3.93
2018-07-25T08:11:28.863Z,3.90
2018-07-25T08:13:58.737Z,4.10
2018-07-25T08:16:28.563Z,3.87
2018-07-25T08:18:58.503Z,3.90
2018-07-25T08:21:28.281Z,4.20
2018-07-25T08:23:58.238Z,3.43
2018-07-25T08:26:28.120Z,3.87
2018-07-25T08:28:57.997Z,3.93
2018-07-25T08:31:27.938Z,3.77
2018-07-25T08:33:57.911Z,3.60
2018-07-25T08:36:27.765Z,4.07
2018-07-25T08:38:57.658Z,3.77
2018-07-25T08:41:27.458Z,4.20
2018-07-25T08:43:57.327Z,6.07
2018-07-25T08:46:27.218Z,4.13
2018-07-25T08:48:57.105Z,4.60
2018-07-25T08:51:27.181Z,4.27
2018-07-25T08:53:57.024Z,4.23
2018-07-25T08:56:27.042Z,4.73
2018-07-25T08:58:56.910Z,4.80
2018-07-25T09:01:26.846Z,5.03
2018-07-25T09:03:56.852Z,4.57
2018-07-25T09:06:26.881Z,4.67
2018-07-25T09:08:57.084Z,4.80
2018-07-25T09:11:28.607Z,5.37
2018-07-25T09:13:59.154Z,4.90
2018-07-25T09:16:31.084Z,5.57
2018-07-25T09:19:01.482Z,5.73
2018-07-25T09:21:31.497Z,5.60
2018-07-25T09:24:01.501Z,5.70
2018-07-25T09:26:32.702Z,5.73
2018-07-25T09:29:02.875Z,5.23
2018-07-25T09:31:36.935Z,5.33
2018-07-25T09:34:07.236Z,5.77
2018-07-25T09:36:37.368Z,5.03
2018-07-25T09:39:10.637Z,5.80
2018-07-25T09:41:40.821Z,5.43
2018-07-25T09:44:11.354Z,5.60
2018-07-25T09:46:45.996Z,5.90
2018-07-25T09:49:16.126Z,5.80
2018-07-25T09:51:47.573Z,5.77
2018-07-25T09:54:17.701Z,6.13
2018-07-25T09:56:48.611Z,5.73
2018-07-25T09:59:24.298Z,5.87
2018-07-25T10:01:54.330Z,6.20
2018-07-25T10:04:24.260Z,6.20
2018-07-25T10:06:54.117Z,5.93
2018-07-25T10:09:24.035Z,5.63
2018-07-25T10:11:53.975Z,5.63
2018-07-25T10:14:23.822Z,5.93
2018-07-25T10:16:53.682Z,5.80
2018-07-25T10:19:23.792Z,6.27
2018-07-25T10:21:54.422Z,5.83
2018-07-25T10:24:24.420Z,5.90
2018-07-25T10:26:54.393Z,5.83
2018-07-25T10:29:24.362Z,5.97
2018-07-25T10:31:54.369Z,5.80
2018-07-25T10:34:24.283Z,6.00
2018-07-25T10:36:54.154Z,6.27
2018-07-25T10:39:24.740Z,6.03
2018-07-25T10:42:10.873Z,5.47
2018-07-25T10:44:40.837Z,6.23
2018-07-25T10:47:11.786Z,5.80
2018-07-25T10:49:41.729Z,5.53
2018-07-25T10:52:12.284Z,6.30
2018-07-25T10:54:42.139Z,5.90
2018-07-25T10:57:12.277Z,5.83
2018-07-25T10:59:42.179Z,6.20
2018-07-25T11:02:12.558Z,6.23
2018-07-25T11:04:42.353Z,5.73
2018-07-25T11:07:12.536Z,5.67
2018-07-25T11:09:42.562Z,6.50
2018-07-25T11:12:12.428Z,6.30
2018-07-25T11:14:42.294Z,6.13
2018-07-25T11:17:12.430Z,6.43
2018-07-25T11:19:42.540Z,6.23
2018-07-25T11:22:12.673Z,6.60
2018-07-25T11:24:42.661Z,6.53
2018-07-25T11:27:12.573Z,6.43
2018-07-25T11:29:42.543Z,6.23
2018-07-25T11:32:12.436Z,6.97
2018-07-25T11:34:42.338Z,7.60
2018-07-25T11:37:12.394Z,6.90
2018-07-25T11:39:42.204Z,6.87
2018-07-25T11:42:27.401Z,6.53
2018-07-25T11:44:57.325Z,6.17
2018-07-25T11:47:27.225Z,6.20
2018-07-25T11:49:57.226Z,5.60
2018-07-25T11:52:27.154Z,6.20
2018-07-25T11:54:57.371Z,6.07
2018-07-25T11:57:27.297Z,6.07
2018-07-25T12:00:16.508Z,6.03
2018-07-25T12:02:47.360Z,5.50
2018-07-25T12:05:19.773Z,5.87
2018-07-25T12:07:49.604Z,5.87
2018-07-25T12:10:21.945Z,6.07
2018-07-25T12:12:51.842Z,5.83
2018-07-25T12:15:28.780Z,5.30
2018-07-25T12:17:58.583Z,5.70
2018-07-25T12:20:28.445Z,5.77
2018-07-25T12:22:58.334Z,5.63
2018-07-25T12:25:28.233Z,5.40
2018-07-25T12:27:58.107Z,5.30
2018-07-25T12:30:27.974Z,5.33
2018-07-25T12:32:57.824Z,6.17
2018-07-25T12:35:27.688Z,5.43
2018-07-25T12:37:57.535Z,5.10
2018-07-25T12:40:27.442Z,5.53
2018-07-25T12:42:57.391Z,5.03
2018-07-25T12:45:27.279Z,5.10
2018-07-25T12:48:00.357Z,5.00
2018-07-25T12:50:30.953Z,5.13
2018-07-25T12:53:01.149Z,5.07
2018-07-25T12:55:31.026Z,5.50
2018-07-25T12:58:01.584Z,5.50
2018-07-25T13:00:34.513Z,5.17
2018-07-25T13:03:06.581Z,5.20
2018-07-25T13:05:36.855Z,5.60
2018-07-25T13:08:06.750Z,6.30
2018-07-25T13:10:36.570Z,6.83
2018-07-25T13:13:07.282Z,6.17
2018-07-25T13:15:37.119Z,6.03
2018-07-25T13:18:07.229Z,5.60
2018-07-25T13:20:37.109Z,5.57
2018-07-25T13:23:07.181Z,6.10
2018-07-25T13:25:37.057Z,6.13
2018-07-25T13:28:06.931Z,6.13
2018-07-25T13:30:36.917Z,6.00
2018-07-25T13:33:06.797Z,5.57
2018-07-25T13:35:36.772Z,6.00
2018-07-25T13:38:06.689Z,6.07
2018-07-25T13:40:36.611Z,6.50
2018-07-25T13:43:06.591Z,5.87
2018-07-25T13:45:36.481Z,6.30
2018-07-25T13:48:06.685Z,6.33
2018-07-25T13:50:36.785Z,6.07
2018-07-25T13:53:07.075Z,6.07
2018-07-25T13:55:37.020Z,6.13
2018-07-25T13:58:07.237Z,6.07
2018-07-25T14:00:37.112Z,5.73
2018-07-25T14:03:07.578Z,6.27
2018-07-25T14:05:37.689Z,5.73
2018-07-25T14:08:07.616Z,5.90
2018-07-25T14:10:37.831Z,5.50
2018-07-25T14:13:07.834Z,6.10
2018-07-25T14:15:45.120Z,5.77
2018-07-25T14:18:16.109Z,6.30
2018-07-25T14:20:47.267Z,5.93
2018-07-25T14:23:18.424Z,6.10
2018-07-25T14:26:31.437Z,5.43
2018-07-25T14:36:05.751Z,6.30
2018-07-25T14:38:35.749Z,5.50
2018-07-25T14:41:05.665Z,5.90
2018-07-25T14:43:35.610Z,5.73
2018-07-25T14:46:05.688Z,5.87
2018-07-25T14:48:43.981Z,5.83
2018-07-25T14:51:14.130Z,5.63
2018-07-25T14:53:43.996Z,5.90
2018-07-25T14:56:13.866Z,6.03
2018-07-25T14:58:43.806Z,6.40
2018-07-25T15:01:13.778Z,5.93
2018-07-25T15:03:43.988Z,5.90
2018-07-25T15:06:14.218Z,6.13
2018-07-25T15:08:44.527Z,5.77
2018-07-25T15:11:14.678Z,5.90
2018-07-25T15:13:44.805Z,6.87
2018-07-25T15:16:15.008Z,6.53
2018-07-25T15:18:45.156Z,6.70
2018-07-25T15:21:15.345Z,6.77
2018-07-25T15:23:59.404Z,6.60
2018-07-25T15:26:29.910Z,6.60
2018-07-25T15:29:01.074Z,6.50
2018-07-25T15:31:31.252Z,6.80
2018-07-25T15:34:01.425Z,6.90
2018-07-25T15:36:48.427Z,6.57
2018-07-25T15:39:21.935Z,6.23
2018-07-25T15:41:52.924Z,6.40
2018-07-25T15:44:24.106Z,6.63
2018-07-25T15:46:54.433Z,6.50
2018-07-25T15:49:24.774Z,6.33
2018-07-25T15:51:54.991Z,6.73
2018-07-25T15:54:25.287Z,6.03
2018-07-25T15:56:55.318Z,6.60
2018-07-25T15:59:25.758Z,6.50
2018-07-25T16:01:55.885Z,6.23
2018-07-25T16:04:25.951Z,5.97
2018-07-25T16:06:56.044Z,6.93
2018-07-25T16:09:26.273Z,6.50
2018-07-25T16:11:56.496Z,5.90
2018-07-25T16:14:26.594Z,6.70
2018-07-25T16:16:57.228Z,6.63
2018-07-25T16:20:07.149Z,6.13
2018-07-25T16:23:20.041Z,6.40
2018-07-25T16:29:25.184Z,6.83
2018-07-25T16:31:55.303Z,6.43
2018-07-25T16:34:25.346Z,5.87
2018-07-25T16:36:55.438Z,6.37
2018-07-25T16:39:25.482Z,6.07
2018-07-25T16:41:55.507Z,5.67
2018-07-25T16:44:25.474Z,5.50
2018-07-25T16:46:55.438Z,5.80
2018-07-25T16:49:25.348Z,6.23
2018-07-25T16:51:55.241Z,5.90
2018-07-25T16:54:25.142Z,6.17
2018-07-25T16:56:55.206Z,6.23
2018-07-25T16:59:25.221Z,6.03
2018-07-25T17:01:55.144Z,5.70
2018-07-25T17:04:25.258Z,5.70
2018-07-25T17:06:55.415Z,5.43
2018-07-25T17:09:25.387Z,5.90
2018-07-25T17:11:55.621Z,5.77
2018-07-25T17:14:28.962Z,5.60
2018-07-25T17:16:58.833Z,5.60
2018-07-25T17:19:29.132Z,5.30
2018-07-25T17:21:59.292Z,5.60
2018-07-25T17:24:29.659Z,5.40
2018-07-25T17:27:00.059Z,6.10
2018-07-25T17:29:30.283Z,5.80
2018-07-25T17:32:00.349Z,5.60
2018-07-25T17:34:30.489Z,6.40
2018-07-25T17:37:00.586Z,5.67
2018-07-25T17:39:30.648Z,5.20
2018-07-25T17:42:00.842Z,5.63
2018-07-25T17:44:32.277Z,5.67
2018-07-25T17:47:02.822Z,5.17
2018-07-25T17:49:33.261Z,5.30
2018-07-25T17:52:03.372Z,5.37
2018-07-25T17:54:33.514Z,5.50
2018-07-25T17:57:04.446Z,5.70
2018-07-25T17:59:34.759Z,5.60
2018-07-25T18:02:06.234Z,5.50
2018-07-25T18:05:05.289Z,5.70
2018-07-25T18:07:44.073Z,5.27
2018-07-25T18:17:02.984Z,5.70
2018-07-25T18:19:33.155Z,5.77
2018-07-25T18:22:04.563Z,6.13
2018-07-25T18:24:34.734Z,5.80
2018-07-25T18:27:05.132Z,5.43
2018-07-25T18:29:35.877Z,5.47
2018-07-25T18:32:06.213Z,5.40
2018-07-25T18:34:37.058Z,5.77
2018-07-25T18:37:07.709Z,5.50
2018-07-25T18:39:38.520Z,5.70
2018-07-25T18:42:08.945Z,5.43
2018-07-25T18:44:39.068Z,6.17
2018-07-25T18:47:09.973Z,5.67
2018-07-25T18:49:42.468Z,5.47
2018-07-25T18:52:16.132Z,5.40
2018-07-25T18:54:46.019Z,4.93
2018-07-25T18:57:16.016Z,5.13
2018-07-25T18:59:46.003Z,5.70
2018-07-25T19:02:16.028Z,4.50
2018-07-25T19:04:46.312Z,5.23
2018-07-25T19:07:17.163Z,5.23
2018-07-25T19:09:47.306Z,5.10
2018-07-25T19:12:17.261Z,5.87
2018-07-25T19:14:52.667Z,4.97
2018-07-25T19:17:22.979Z,5.53
2018-07-25T19:19:52.890Z,5.33
2018-07-25T19:22:23.019Z,5.13
2018-07-25T19:24:52.931Z,5.30
2018-07-25T19:27:23.658Z,5.27
2018-07-25T19:29:56.438Z,5.47
2018-07-25T19:32:26.886Z,5.13
2018-07-25T19:35:16.146Z,5.10
2018-07-25T19:38:03.312Z,4.80
2018-07-25T19:40:52.918Z,5.10
2018-07-25T19:43:22.860Z,5.07
2018-07-25T19:45:52.997Z,4.53
2018-07-25T19:48:23.048Z,5.50
2018-07-25T19:50:53.136Z,5.47
2018-07-25T19:53:23.331Z,4.83
2018-07-25T19:55:53.391Z,4.50
2018-07-25T20:04:59.630Z,4.67
2018-07-25T20:07:30.301Z,4.87
2018-07-25T20:10:00.535Z,5.07
2018-07-25T20:12:30.558Z,4.63
2018-07-25T20:15:05.690Z,4.57
2018-07-25T20:18:03.714Z,5.40
2018-07-25T20:20:35.815Z,4.90
2018-07-25T20:23:05.774Z,4.60
2018-07-25T20:25:35.963Z,5.13
2018-07-25T20:28:12.305Z,5.80
2018-07-25T20:30:53.178Z,4.80
2018-07-25T20:33:23.421Z,5.33
2018-07-25T20:35:53.742Z,5.20
2018-07-25T20:38:24.553Z,5.23
2018-07-25T20:40:54.535Z,6.67
2018-07-25T20:43:24.522Z,5.60
2018-07-25T20:46:20.191Z,5.07
2018-07-25T20:48:51.362Z,5.00
2018-07-25T20:51:21.605Z,5.03
2018-07-25T20:53:51.588Z,5.03
2018-07-25T20:56:31.299Z,5.60
2018-07-25T20:59:04.076Z,5.40
2018-07-25T21:01:35.289Z,5.83
2018-07-25T21:04:05.902Z,5.43
2018-07-25T21:06:36.019Z,5.47
2018-07-25T21:09:14.556Z,5.63
2018-07-25T21:11:55.921Z,5.70
2018-07-25T21:14:25.965Z,5.70
2018-07-25T21:17:16.362Z,5.40
2018-07-25T21:19:49.337Z,5.73
2018-07-25T21:22:20.469Z,5.07
2018-07-25T21:25:23.846Z,5.03
2018-07-25T21:27:57.110Z,5.10
2018-07-25T21:30:28.607Z,5.93
2018-07-25T21:33:08.259Z,5.10
2018-07-25T21:35:42.286Z,5.40
2018-07-25T21:38:13.406Z,5.77
2018-07-25T21:40:43.436Z,5.63
2018-07-25T21:43:14.168Z,5.87
2018-07-25T21:45:44.503Z,5.70
2018-07-25T21:48:14.397Z,6.57
2018-07-25T21:50:44.601Z,6.03
2018-07-25T21:53:14.747Z,5.90
2018-07-25T21:55:45.548Z,5.93
2018-07-25T21:58:21.882Z,6.17
2018-07-25T22:01:18.350Z,5.90
2018-07-25T22:03:48.556Z,5.30
2018-07-25T22:06:18.604Z,6.00
2018-07-25T22:08:48.591Z,6.13
2018-07-25T22:11:21.663Z,6.43
2018-07-25T22:14:07.626Z,6.87
2018-07-25T22:16:40.734Z,6.60
2018-07-25T22:19:22.362Z,6.43
2018-07-25T22:21:52.519Z,7.23
2018-07-25T22:24:50.205Z,7.53
2018-07-25T22:27:36.499Z,7.43
2018-07-25T22:30:07.038Z,7.10
2018-07-25T22:32:36.953Z,6.53
2018-07-25T22:35:07.388Z,6.70
2018-07-25T22:37:37.422Z,7.00
2018-07-25T22:40:08.275Z,6.77
2018-07-25T22:42:50.034Z,7.60
2018-07-25T22:45:26.645Z,7.30
2018-07-25T22:47:56.864Z,6.87
2018-07-25T22:50:27.517Z,6.63
2018-07-25T22:52:58.393Z,7.30
2018-07-25T22:55:28.475Z,7.40
2018-07-25T22:58:04.012Z,7.47
2018-07-25T23:00:36.845Z,7.73
2018-07-25T23:03:07.130Z,7.10
2018-07-25T23:05:48.745Z,6.90
2018-07-25T23:08:19.576Z,7.43
2018-07-25T23:11:02.783Z,7.53
2018-07-25T23:13:32.947Z,7.20
2018-07-25T23:16:19.793Z,7.47
2018-07-25T23:18:50.278Z,7.00
2018-07-25T23:21:40.040Z,7.07
2018-07-25T23:24:10.600Z,7.00
2018-07-25T23:26:40.614Z,7.60
2018-07-25T23:29:11.050Z,7.30
2018-07-25T23:31:42.049Z,7.57
2018-07-25T23:34:12.562Z,7.40
2018-07-25T23:36:42.575Z,7.80
2018-07-25T23:39:13.033Z,7.50
2018-07-25T23:41:55.222Z,7.33
2018-07-25T23:44:29.990Z,7.80
2018-07-25T23:47:00.710Z,7.67
2018-07-25T23:49:34.903Z,7.73
2018-07-25T23:52:18.414Z,7.67
2018-07-25T23:54:49.135Z,7.57
2018-07-25T23:57:19.407Z,8.00
2018-07-25T23:59:49.441Z,7.40
